Time;durP1;ratioP1;P1;durP2;ratioP2;P2;SDS_P1;SDS_P2;PMS_P1;PMS_P2;Temp;Humidity;BMP_temperature;BMP_pressure;BME280_temperature;BME280_humidity;BME280_pressure;Samples;Min_cycle;Max_cycle;Signal;HPM_P1;HPM_P2
2022/02/20 00:01:53;;;;;;;1.05;1.05;;;;;;;;;;5038902;28;20285;-83
2022/02/20 00:04:20;;;;;;;1.63;0.90;;;;;;;;;;5041081;28;20213;-82
2022/02/20 00:06:47;;;;;;;1.63;0.80;;;;;;;;;;5040853;28;20226;-82
2022/02/20 00:09:14;;;;;;;1.27;1.17;;;;;;;;;;5040969;28;20198;-83
2022/02/20 00:11:42;;;;;;;1.00;0.85;;;;;;;;;;5039276;28;20206;-82
2022/02/20 00:14:09;;;;;;;0.80;0.70;;;;;;;;;;5038236;28;20599;-83
2022/02/20 00:16:38;;;;;;;2.78;1.20;;;;;;;;;;5037579;28;20736;-83
2022/02/20 00:19:05;;;;;;;0.80;0.80;;;;;;;;;;5038116;28;20202;-84
2022/02/20 00:21:33;;;;;;;0.75;0.75;;;;;;;;;;5037430;28;20198;-83
2022/02/20 00:24:00;;;;;;;0.77;0.73;;;;;;;;;;5036501;28;20272;-82
2022/02/20 00:26:27;;;;;;;2.05;1.10;;;;;;;;;;5036588;28;20226;-82
2022/02/20 00:28:55;;;;;;;0.90;0.90;;;;;;;;;;5036778;28;20209;-82
2022/02/20 00:31:22;;;;;;;1.02;0.90;;;;;;;;;;5036264;28;20198;-82
2022/02/20 00:33:51;;;;;;;3.42;1.20;;;;;;;;;;5037797;28;20613;-82
2022/02/20 00:36:18;;;;;;;0.80;0.80;;;;;;;;;;5035279;28;20218;-82
2022/02/20 00:38:45;;;;;;;1.52;1.10;;;;;;;;;;5036087;28;20202;-82
2022/02/20 00:41:12;;;;;;;0.90;0.90;;;;;;;;;;5036120;28;20229;-82
2022/02/20 00:43:40;;;;;;;4.63;1.48;;;;;;;;;;5036993;28;20293;-83
2022/02/20 00:46:07;;;;;;;1.02;0.93;;;;;;;;;;5035576;28;20297;-82
2022/02/20 00:48:34;;;;;;;1.45;1.00;;;;;;;;;;5037431;28;20206;-83
2022/02/20 00:51:03;;;;;;;1.20;1.10;;;;;;;;;;5036080;28;20206;-82
2022/02/20 00:53:30;;;;;;;0.88;0.88;;;;;;;;;;5037230;28;20206;-83
2022/02/20 00:55:58;;;;;;;0.90;0.90;;;;;;;;;;5035393;28;20222;-82
2022/02/20 00:58:25;;;;;;;1.52;1.00;;;;;;;;;;5036155;28;20632;-82
2022/02/20 01:00:52;;;;;;;0.98;0.88;;;;;;;;;;5035523;28;20293;-83
2022/02/20 01:03:19;;;;;;;1.60;1.40;;;;;;;;;;5036996;28;20202;-82
2022/02/20 01:05:47;;;;;;;1.48;0.80;;;;;;;;;;5034931;28;20249;-82
2022/02/20 01:08:15;;;;;;;1.35;1.25;;;;;;;;;;5035898;28;20289;-83
2022/02/20 01:10:43;;;;;;;1.13;1.13;;;;;;;;;;5034928;28;20259;-82
2022/02/20 01:13:10;;;;;;;1.85;1.15;;;;;;;;;;5033934;28;20202;-82
2022/02/20 01:15:37;;;;;;;0.93;0.90;;;;;;;;;;5034533;28;20202;-82
2022/02/20 01:18:05;;;;;;;0.70;0.70;;;;;;;;;;5034600;28;20206;-82
2022/02/20 01:20:32;;;;;;;0.52;0.52;;;;;;;;;;5034011;28;20675;-82
2022/02/20 01:23:00;;;;;;;1.25;1.10;;;;;;;;;;5034252;28;20198;-82
2022/02/20 01:25:28;;;;;;;0.70;0.70;;;;;;;;;;5033835;28;20217;-82
2022/02/20 01:27:57;;;;;;;0.60;0.60;;;;;;;;;;5034397;28;20229;-82
2022/02/20 01:30:24;;;;;;;0.70;0.70;;;;;;;;;;5033700;28;20206;-81
2022/02/20 01:32:51;;;;;;;0.93;0.85;;;;;;;;;;5033996;28;20206;-82
2022/02/20 01:35:18;;;;;;;0.60;0.60;;;;;;;;;;5033456;28;20259;-81
2022/02/20 01:37:46;;;;;;;0.70;0.70;;;;;;;;;;5033917;28;20209;-82
2022/02/20 01:40:14;;;;;;;0.50;0.50;;;;;;;;;;5033231;28;20214;-81
2022/02/20 01:42:43;;;;;;;2.50;0.80;;;;;;;;;;5033282;28;20677;-81
2022/02/20 01:45:13;;;;;;;0.50;0.50;;;;;;;;;;5033515;28;20213;-81
2022/02/20 01:47:41;;;;;;;0.88;0.80;;;;;;;;;;5033683;28;20654;-81
2022/02/20 01:50:10;;;;;;;1.55;0.77;;;;;;;;;;5033460;28;20202;-80
2022/02/20 01:52:38;;;;;;;0.60;0.60;;;;;;;;;;5033386;28;20202;-82
2022/02/20 01:55:08;;;;;;;0.75;0.75;;;;;;;;;;5033685;28;20756;-81
2022/02/20 01:57:35;;;;;;;0.65;0.63;;;;;;;;;;5033694;28;20222;-82
2022/02/20 02:00:06;;;;;;;0.70;0.70;;;;;;;;;;5033645;28;20202;-81
2022/02/20 02:02:34;;;;;;;1.23;1.00;;;;;;;;;;5033351;28;20198;-81
2022/02/20 02:05:01;;;;;;;0.90;0.90;;;;;;;;;;5033397;28;20198;-81
2022/02/20 02:07:29;;;;;;;0.80;0.80;;;;;;;;;;5032540;28;20233;-82
2022/02/20 02:09:56;;;;;;;4.68;0.93;;;;;;;;;;5032638;28;20215;-81
2022/02/20 02:12:24;;;;;;;0.70;0.70;;;;;;;;;;5033143;28;20206;-81
2022/02/20 02:14:56;;;;;;;2.25;0.70;;;;;;;;;;5032456;28;20203;-81
2022/02/20 02:17:25;;;;;;;1.40;1.15;;;;;;;;;;5032417;28;20224;-82
2022/02/20 02:19:53;;;;;;;1.85;0.68;;;;;;;;;;5032636;28;20697;-81
2022/02/20 02:22:22;;;;;;;1.02;0.93;;;;;;;;;;5031928;28;20245;-82
2022/02/20 02:24:50;;;;;;;0.70;0.70;;;;;;;;;;5034639;28;20206;-81
2022/02/20 02:27:18;;;;;;;1.42;1.17;;;;;;;;;;5035743;28;20229;-82
2022/02/20 02:29:48;;;;;;;2.92;1.63;;;;;;;;;;5035988;28;20202;-81
2022/02/20 02:32:16;;;;;;;1.20;1.10;;;;;;;;;;5035895;28;20206;-81
2022/02/20 02:34:45;;;;;;;1.67;1.30;;;;;;;;;;5036017;28;20206;-82
2022/02/20 02:37:13;;;;;;;1.83;1.10;;;;;;;;;;5035827;28;20707;-82
2022/02/20 02:39:42;;;;;;;1.50;1.23;;;;;;;;;;5035563;28;20206;-81
2022/02/20 02:42:11;;;;;;;1.20;1.10;;;;;;;;;;5035145;28;20206;-81
2022/02/20 02:44:38;;;;;;;1.70;1.08;;;;;;;;;;5035609;28;20217;-81
2022/02/20 02:47:07;;;;;;;2.85;1.05;;;;;;;;;;5035511;28;20230;-81
2022/02/20 02:49:35;;;;;;;2.88;1.05;;;;;;;;;;5035552;28;20199;-81
2022/02/20 02:52:02;;;;;;;1.50;1.30;;;;;;;;;;5035108;28;20205;-82
2022/02/20 02:54:30;;;;;;;4.05;1.63;;;;;;;;;;5035138;28;20206;-81
2022/02/20 02:56:58;;;;;;;1.70;1.25;;;;;;;;;;5035756;28;20356;-79
2022/02/20 02:59:26;;;;;;;3.10;1.45;;;;;;;;;;5034736;28;20621;-81
2022/02/20 03:01:56;;;;;;;1.63;1.50;;;;;;;;;;5034908;28;20252;-80
2022/02/20 03:04:23;;;;;;;1.65;1.50;;;;;;;;;;5035724;28;20205;-81
2022/02/20 03:06:50;;;;;;;2.70;1.67;;;;;;;;;;5035015;28;20222;-82
2022/02/20 03:09:18;;;;;;;1.50;1.40;;;;;;;;;;5036362;28;20717;-81
2022/02/20 03:11:45;;;;;;;3.30;2.13;;;;;;;;;;5035317;28;20229;-81
2022/02/20 03:14:14;;;;;;;3.40;1.50;;;;;;;;;;5036778;28;20202;-80
2022/02/20 03:16:41;;;;;;;4.35;1.63;;;;;;;;;;5036329;28;20268;-82
2022/02/20 03:19:08;;;;;;;6.13;2.80;;;;;;;;;;5039120;28;20633;-80
2022/02/20 03:21:35;;;;;;;3.95;2.20;;;;;;;;;;5037012;28;20202;-82
2022/02/20 03:24:03;;;;;;;1.85;1.60;;;;;;;;;;5039274;28;20206;-80
2022/02/20 03:26:30;;;;;;;5.57;1.73;;;;;;;;;;5038399;28;20222;-82
2022/02/20 03:28:58;;;;;;;1.77;1.63;;;;;;;;;;5038026;28;20223;-81
2022/02/20 03:31:26;;;;;;;1.45;1.35;;;;;;;;;;5036764;28;20202;-82
2022/02/20 03:33:54;;;;;;;2.88;1.65;;;;;;;;;;5037927;28;20230;-82
2022/02/20 03:36:21;;;;;;;4.63;2.17;;;;;;;;;;5036330;28;20222;-81
2022/02/20 03:38:48;;;;;;;1.88;1.58;;;;;;;;;;5038090;28;20202;-82
2022/02/20 03:41:15;;;;;;;1.83;1.58;;;;;;;;;;5036005;28;20217;-82
2022/02/20 03:43:43;;;;;;;2.33;2.13;;;;;;;;;;5036956;28;20209;-83
2022/02/20 03:46:10;;;;;;;1.42;1.33;;;;;;;;;;5036939;28;20277;-83
2022/02/20 03:48:39;;;;;;;1.55;1.45;;;;;;;;;;5036847;28;20226;-82
2022/02/20 03:51:06;;;;;;;2.47;1.60;;;;;;;;;;5037390;28;20206;-82
2022/02/20 03:53:33;;;;;;;5.68;1.60;;;;;;;;;;5038383;28;20620;-82
2022/02/20 03:56:01;;;;;;;4.82;1.83;;;;;;;;;;5037381;28;20734;-80
2022/02/20 03:58:28;;;;;;;3.38;1.75;;;;;;;;;;5037727;28;20205;-81
2022/02/20 04:00:55;;;;;;;1.70;1.60;;;;;;;;;;5037129;28;20213;-81
2022/02/20 04:03:23;;;;;;;1.83;1.70;;;;;;;;;;5037424;28;20198;-81
2022/02/20 04:05:51;;;;;;;2.08;1.50;;;;;;;;;;5036414;28;20230;-81
2022/02/20 04:08:19;;;;;;;2.78;1.70;;;;;;;;;;5035997;28;20218;-82
2022/02/20 04:10:46;;;;;;;3.33;1.65;;;;;;;;;;5035896;28;20296;-82
2022/02/20 04:13:13;;;;;;;2.78;1.55;;;;;;;;;;5036635;28;20202;-80
2022/02/20 04:15:41;;;;;;;2.30;1.52;;;;;;;;;;5036573;28;20221;-82
2022/02/20 04:18:08;;;;;;;1.67;1.38;;;;;;;;;;5036315;28;20198;-81
2022/02/20 04:20:36;;;;;;;3.08;1.83;;;;;;;;;;5036312;28;20209;-82
2022/02/20 04:23:04;;;;;;;2.90;1.52;;;;;;;;;;5038336;28;20950;-82
2022/02/20 04:25:32;;;;;;;3.28;1.60;;;;;;;;;;5036279;28;20674;-81
2022/02/20 04:27:59;;;;;;;1.35;1.30;;;;;;;;;;5037297;28;20206;-82
2022/02/20 04:30:26;;;;;;;6.53;1.70;;;;;;;;;;5036399;28;20595;-81
2022/02/20 04:32:53;;;;;;;1.10;1.10;;;;;;;;;;5036204;28;20198;-81
2022/02/20 04:35:21;;;;;;;1.48;1.30;;;;;;;;;;5036704;28;20214;-82
2022/02/20 04:37:48;;;;;;;2.05;1.67;;;;;;;;;;5037022;28;20194;-80
2022/02/20 04:40:17;;;;;;;1.73;1.40;;;;;;;;;;5036866;28;20218;-82
2022/02/20 04:42:44;;;;;;;2.00;1.30;;;;;;;;;;5034961;28;20217;-80
2022/02/20 04:45:11;;;;;;;2.47;1.52;;;;;;;;;;5036646;28;20217;-81
2022/02/20 04:47:38;;;;;;;2.92;1.45;;;;;;;;;;5037192;28;20698;-82
2022/02/20 04:50:07;;;;;;;1.88;1.77;;;;;;;;;;5036430;28;20736;-82
2022/02/20 04:52:35;;;;;;;1.10;1.10;;;;;;;;;;5036688;28;20623;-82
2022/02/20 04:55:02;;;;;;;3.40;1.40;;;;;;;;;;5036615;28;20210;-82
2022/02/20 04:57:34;;;;;;;2.67;2.40;;;;;;;;;;5037516;28;20222;-82
2022/02/20 05:00:01;;;;;;;2.08;1.60;;;;;;;;;;5037428;28;20206;-80
2022/02/20 05:02:28;;;;;;;2.03;1.33;;;;;;;;;;5038057;28;20267;-79
2022/02/20 05:04:56;;;;;;;1.65;1.25;;;;;;;;;;5046973;28;20658;-81
2022/02/20 05:07:23;;;;;;;1.48;1.30;;;;;;;;;;5048146;28;20222;-81
2022/02/20 05:09:51;;;;;;;1.35;1.25;;;;;;;;;;5047026;28;20296;-80
2022/02/20 05:12:18;;;;;;;1.92;1.27;;;;;;;;;;5046442;28;20659;-81
2022/02/20 05:14:47;;;;;;;1.42;1.05;;;;;;;;;;5041830;28;20248;-81
2022/02/20 05:17:16;;;;;;;0.93;0.93;;;;;;;;;;5039692;28;20226;-80
2022/02/20 05:19:43;;;;;;;3.58;1.80;;;;;;;;;;5042105;28;20198;-82
2022/02/20 05:22:10;;;;;;;1.17;1.00;;;;;;;;;;5039762;28;20205;-81
2022/02/20 05:24:38;;;;;;;1.40;1.40;;;;;;;;;;5042337;28;20609;-81
2022/02/20 05:27:05;;;;;;;1.25;1.17;;;;;;;;;;5039382;28;20218;-80
2022/02/20 05:29:32;;;;;;;3.05;1.58;;;;;;;;;;5039688;28;20229;-81
2022/02/20 05:32:01;;;;;;;4.18;2.10;;;;;;;;;;5040417;28;20198;-81
2022/02/20 05:34:28;;;;;;;2.58;1.30;;;;;;;;;;5040259;28;20206;-81
2022/02/20 05:36:56;;;;;;;1.17;1.08;;;;;;;;;;5039852;28;20229;-81
2022/02/20 05:39:23;;;;;;;1.25;1.10;;;;;;;;;;5039995;28;20577;-83
2022/02/20 05:41:50;;;;;;;2.35;2.15;;;;;;;;;;5041624;28;20720;-83
2022/02/20 05:44:17;;;;;;;1.83;1.35;;;;;;;;;;5042240;28;20207;-80
2022/02/20 05:46:44;;;;;;;3.08;1.95;;;;;;;;;;5037536;28;20265;-83
2022/02/20 05:49:13;;;;;;;3.10;2.15;;;;;;;;;;5039535;28;20222;-83
2022/02/20 05:51:40;;;;;;;3.33;1.60;;;;;;;;;;5042942;28;20205;-82
2022/02/20 05:54:08;;;;;;;3.17;2.25;;;;;;;;;;5042635;28;20209;-82
2022/02/20 05:56:35;;;;;;;2.85;2.47;;;;;;;;;;5038566;28;20234;-82
2022/02/20 05:59:03;;;;;;;4.90;3.20;;;;;;;;;;5034712;28;20213;-82
2022/02/20 06:01:32;;;;;;;4.93;2.63;;;;;;;;;;5040619;28;20206;-83
2022/02/20 06:03:59;;;;;;;2.92;2.63;;;;;;;;;;5040518;28;20663;-83
2022/02/20 06:06:32;;;;;;;2.35;1.85;;;;;;;;;;5039964;28;20232;-83
2022/02/20 06:08:59;;;;;;;2.35;1.60;;;;;;;;;;5037472;28;20202;-83
2022/02/20 06:11:27;;;;;;;1.70;1.60;;;;;;;;;;5023659;28;20230;-83
2022/02/20 06:13:54;;;;;;;1.58;1.48;;;;;;;;;;5017413;28;20224;-85
2022/02/20 06:16:21;;;;;;;1.13;0.90;;;;;;;;;;5020248;28;20454;-86
2022/02/20 06:18:49;;;;;;;1.35;1.27;;;;;;;;;;5018973;28;20214;-85
2022/02/20 06:21:17;;;;;;;1.40;1.20;;;;;;;;;;5025356;28;20207;-85
2022/02/20 06:23:46;;;;;;;1.42;1.33;;;;;;;;;;5025321;28;20195;-84
2022/02/20 06:26:13;;;;;;;1.45;1.35;;;;;;;;;;5026797;28;20233;-83
2022/02/20 06:28:41;;;;;;;2.47;1.13;;;;;;;;;;5028483;28;20199;-82
2022/02/20 06:31:08;;;;;;;1.63;1.52;;;;;;;;;;5024551;28;20254;-85
2022/02/20 06:33:36;;;;;;;1.42;1.42;;;;;;;;;;5022340;28;20270;-83
2022/02/20 06:36:03;;;;;;;2.78;2.55;;;;;;;;;;5023237;28;20588;-83
2022/02/20 06:38:31;;;;;;;1.40;1.30;;;;;;;;;;5021114;28;20214;-82
2022/02/20 06:41:04;;;;;;;1.20;1.10;;;;;;;;;;5022699;28;20287;-83
2022/02/20 06:43:34;;;;;;;1.00;1.00;;;;;;;;;;5021564;28;20241;-83
2022/02/20 06:46:01;;;;;;;1.60;1.50;;;;;;;;;;5020029;28;20226;-84
2022/02/20 06:48:33;;;;;;;1.35;1.25;;;;;;;;;;5019019;28;20266;-84
2022/02/20 06:51:08;;;;;;;1.50;1.40;;;;;;;;;;5019709;28;20223;-85
2022/02/20 06:53:38;;;;;;;1.35;1.25;;;;;;;;;;5017736;28;20198;-83
2022/02/20 06:56:09;;;;;;;1.45;1.35;;;;;;;;;;5018718;28;20308;-84
2022/02/20 06:58:37;;;;;;;1.30;1.20;;;;;;;;;;5015477;28;20245;-85
2022/02/20 07:01:04;;;;;;;2.20;1.60;;;;;;;;;;5015939;28;20204;-84
2022/02/20 07:03:31;;;;;;;1.40;1.30;;;;;;;;;;5015276;28;20203;-84
2022/02/20 07:05:59;;;;;;;1.70;1.30;;;;;;;;;;5015361;28;20625;-84
2022/02/20 07:08:26;;;;;;;5.70;1.55;;;;;;;;;;5016456;28;20574;-85
2022/02/20 07:10:53;;;;;;;1.33;1.23;;;;;;;;;;5025293;28;20267;-82
2022/02/20 07:13:22;;;;;;;1.65;1.27;;;;;;;;;;5034962;28;20210;-85
2022/02/20 07:15:49;;;;;;;1.20;1.15;;;;;;;;;;5035001;28;20222;-84
2022/02/20 07:18:17;;;;;;;1.35;1.20;;;;;;;;;;5035841;28;20618;-84
2022/02/20 07:20:44;;;;;;;1.42;0.98;;;;;;;;;;5038333;28;20198;-84
2022/02/20 07:23:13;;;;;;;1.58;1.48;;;;;;;;;;5036356;28;20212;-84
2022/02/20 07:25:40;;;;;;;1.40;1.00;;;;;;;;;;5037838;28;20202;-84
2022/02/20 07:28:08;;;;;;;1.92;1.40;;;;;;;;;;5036867;28;20202;-82
2022/02/20 07:30:36;;;;;;;2.10;1.80;;;;;;;;;;5038191;28;20233;-84
2022/02/20 07:33:05;;;;;;;2.33;1.27;;;;;;;;;;5037810;28;20202;-84
2022/02/20 07:35:32;;;;;;;2.95;1.42;;;;;;;;;;5038397;28;20203;-82
2022/02/20 07:38:00;;;;;;;3.42;1.55;;;;;;;;;;5038814;28;20198;-83
2022/02/20 07:40:28;;;;;;;3.00;1.90;;;;;;;;;;5040053;28;20206;-83
2022/02/20 07:42:55;;;;;;;1.80;1.70;;;;;;;;;;5037869;28;20206;-84
2022/02/20 07:45:23;;;;;;;1.40;1.30;;;;;;;;;;5038393;28;20213;-82
2022/02/20 07:47:56;;;;;;;3.05;1.65;;;;;;;;;;5038634;28;20199;-84
2022/02/20 07:50:25;;;;;;;4.13;1.92;;;;;;;;;;5036971;28;20222;-83
2022/02/20 07:52:52;;;;;;;1.55;1.30;;;;;;;;;;5038609;28;20218;-83
2022/02/20 07:55:20;;;;;;;1.80;1.55;;;;;;;;;;5039227;28;20205;-83
2022/02/20 07:57:48;;;;;;;1.40;1.30;;;;;;;;;;5038740;28;20202;-83
2022/02/20 08:00:19;;;;;;;3.05;1.60;;;;;;;;;;5035389;28;20585;-84
2022/02/20 08:02:46;;;;;;;1.80;1.52;;;;;;;;;;5039798;28;20199;-82
2022/02/20 08:05:15;;;;;;;1.88;1.42;;;;;;;;;;5043095;28;20666;-83
2022/02/20 08:07:43;;;;;;;2.78;2.05;;;;;;;;;;5038131;28;20596;-82
2022/02/20 08:10:11;;;;;;;4.40;1.90;;;;;;;;;;5032345;28;20285;-83
2022/02/20 08:12:39;;;;;;;2.92;1.63;;;;;;;;;;5032919;28;20242;-83
2022/02/20 08:15:07;;;;;;;3.38;1.98;;;;;;;;;;5038823;28;20252;-84
2022/02/20 08:17:35;;;;;;;2.45;2.03;;;;;;;;;;5033071;28;20294;-83
2022/02/20 08:20:03;;;;;;;4.53;2.47;;;;;;;;;;5031626;28;20214;-82
2022/02/20 08:22:32;;;;;;;2.78;2.30;;;;;;;;;;5039011;28;20206;-83
2022/02/20 08:24:59;;;;;;;4.93;2.17;;;;;;;;;;5037799;28;20210;-82
2022/02/20 08:27:26;;;;;;;3.85;2.05;;;;;;;;;;5037452;28;20233;-83
2022/02/20 08:29:54;;;;;;;2.50;2.30;;;;;;;;;;5037408;28;20209;-83
2022/02/20 08:32:22;;;;;;;2.95;2.45;;;;;;;;;;5037076;28;20231;-83
2022/02/20 08:34:49;;;;;;;4.00;2.28;;;;;;;;;;5036240;28;20210;-83
2022/02/20 08:37:16;;;;;;;2.53;1.70;;;;;;;;;;5035643;28;20309;-84
2022/02/20 08:39:45;;;;;;;3.55;2.55;;;;;;;;;;5038456;28;20206;-82
2022/02/20 08:42:12;;;;;;;2.38;2.10;;;;;;;;;;5036835;28;20202;-83
2022/02/20 08:44:41;;;;;;;4.50;1.67;;;;;;;;;;5036352;28;20206;-82
2022/02/20 08:47:09;;;;;;;3.05;1.80;;;;;;;;;;5035945;28;20219;-83
2022/02/20 08:49:37;;;;;;;2.58;1.77;;;;;;;;;;5037337;28;20202;-83
2022/02/20 08:52:05;;;;;;;3.33;1.90;;;;;;;;;;5036404;28;20805;-84
2022/02/20 08:54:32;;;;;;;2.83;1.67;;;;;;;;;;5037357;28;20206;-83
2022/02/20 08:57:04;;;;;;;6.07;2.45;;;;;;;;;;5036065;28;20257;-83
2022/02/20 08:59:33;;;;;;;2.97;2.05;;;;;;;;;;5035079;28;20682;-83
2022/02/20 09:02:00;;;;;;;3.50;2.10;;;;;;;;;;5034740;28;20748;-84
2022/02/20 09:04:27;;;;;;;2.03;1.40;;;;;;;;;;5036102;28;20202;-83
2022/02/20 09:06:55;;;;;;;1.90;1.77;;;;;;;;;;5035421;28;20230;-83
2022/02/20 09:09:22;;;;;;;2.35;1.58;;;;;;;;;;5035924;28;20209;-83
2022/02/20 09:11:49;;;;;;;1.17;1.08;;;;;;;;;;5034914;28;20222;-83
2022/02/20 09:14:18;;;;;;;2.55;1.45;;;;;;;;;;5034940;28;20698;-83
2022/02/20 09:16:46;;;;;;;1.55;1.13;;;;;;;;;;5034669;28;20226;-83
2022/02/20 09:19:13;;;;;;;1.40;1.30;;;;;;;;;;5034529;28;20208;-83
2022/02/20 09:21:41;;;;;;;2.97;1.60;;;;;;;;;;5034782;28;20202;-84
2022/02/20 09:24:08;;;;;;;2.35;1.30;;;;;;;;;;5035034;28;20206;-83
2022/02/20 09:26:35;;;;;;;1.20;1.13;;;;;;;;;;5034436;28;20229;-83
2022/02/20 09:29:03;;;;;;;2.10;1.10;;;;;;;;;;5035592;28;20198;-83
2022/02/20 09:31:32;;;;;;;1.65;1.10;;;;;;;;;;5035049;28;20272;-84
2022/02/20 09:33:59;;;;;;;1.15;0.95;;;;;;;;;;5034180;28;20558;-84
2022/02/20 09:36:27;;;;;;;1.20;1.10;;;;;;;;;;5034588;28;20256;-83
2022/02/20 09:38:54;;;;;;;2.17;1.10;;;;;;;;;;5035197;28;20206;-84
2022/02/20 09:41:26;;;;;;;1.08;1.00;;;;;;;;;;5034377;28;20297;-84
2022/02/20 09:43:56;;;;;;;0.90;0.90;;;;;;;;;;5034322;28;20209;-83
2022/02/20 09:46:24;;;;;;;1.13;1.10;;;;;;;;;;5034348;28;20222;-83
2022/02/20 09:48:55;;;;;;;2.78;1.15;;;;;;;;;;5034617;28;20202;-84
2022/02/20 09:51:23;;;;;;;0.60;0.50;;;;;;;;;;5034457;28;20230;-83
2022/02/20 09:53:51;;;;;;;3.03;1.25;;;;;;;;;;5035530;28;20198;-84
2022/02/20 09:56:19;;;;;;;0.75;0.75;;;;;;;;;;5034066;28;20257;-85
2022/02/20 09:58:46;;;;;;;0.98;0.60;;;;;;;;;;5035217;28;20202;-83
2022/02/20 10:01:15;;;;;;;0.80;0.80;;;;;;;;;;5034709;28;20213;-84
2022/02/20 10:03:44;;;;;;;0.50;0.50;;;;;;;;;;5034741;28;20202;-83
2022/02/20 10:06:18;;;;;;;0.60;0.60;;;;;;;;;;5034941;28;20276;-84
2022/02/20 10:08:47;;;;;;;0.93;0.80;;;;;;;;;;5034937;28;20265;-84
2022/02/20 10:11:20;;;;;;;1.98;0.82;;;;;;;;;;5035078;28;20210;-84
2022/02/20 10:13:49;;;;;;;1.95;0.80;;;;;;;;;;5034762;28;20721;-84
2022/02/20 10:16:19;;;;;;;0.50;0.50;;;;;;;;;;5035031;28;20572;-84
2022/02/20 10:18:48;;;;;;;0.68;0.68;;;;;;;;;;5035132;28;20251;-85
2022/02/20 10:21:20;;;;;;;3.33;1.10;;;;;;;;;;5035125;28;20801;-85
2022/02/20 10:23:47;;;;;;;1.13;1.00;;;;;;;;;;5035467;28;20183;-84
2022/02/20 10:26:19;;;;;;;0.90;0.70;;;;;;;;;;5034961;28;20806;-85
2022/02/20 10:29:06;;;;;;;1.65;0.40;;;;;;;;;;5034920;28;20230;-84
2022/02/20 10:31:42;;;;;;;0.90;0.90;;;;;;;;;;5034168;28;20588;-84
2022/02/20 10:34:13;;;;;;;1.92;0.73;;;;;;;;;;5034015;28;20217;-83
2022/02/20 10:36:54;;;;;;;0.95;0.60;;;;;;;;;;5034952;28;20546;-83
2022/02/20 10:39:27;;;;;;;0.52;0.52;;;;;;;;;;5034843;28;20206;-84
2022/02/20 10:41:56;;;;;;;0.50;0.50;;;;;;;;;;5034268;28;20218;-84
2022/02/20 10:44:24;;;;;;;0.82;0.60;;;;;;;;;;5033879;28;20244;-84
2022/02/20 10:47:10;;;;;;;0.70;0.70;;;;;;;;;;5039014;28;20621;-84
2022/02/20 10:49:37;;;;;;;0.82;0.68;;;;;;;;;;5042906;28;20256;-85
2022/02/20 10:52:07;;;;;;;0.60;0.60;;;;;;;;;;5042914;28;20230;-83
2022/02/20 10:54:34;;;;;;;1.08;0.63;;;;;;;;;;5039823;28;20213;-83
2022/02/20 10:57:02;;;;;;;0.45;0.45;;;;;;;;;;5038554;28;20641;-84
2022/02/20 10:59:50;;;;;;;0.68;0.68;;;;;;;;;;5038972;28;20575;-86
2022/02/20 11:02:18;;;;;;;0.70;0.70;;;;;;;;;;5039567;28;20202;-86
2022/02/20 11:04:47;;;;;;;0.70;0.70;;;;;;;;;;5040066;28;20200;-86
2022/02/20 11:07:17;;;;;;;0.60;0.60;;;;;;;;;;5038792;28;20596;-87
2022/02/20 11:09:45;;;;;;;0.65;0.65;;;;;;;;;;5038883;28;20198;-86
2022/02/20 11:12:14;;;;;;;0.55;0.55;;;;;;;;;;5040807;28;20773;-86
2022/02/20 11:14:41;;;;;;;0.40;0.40;;;;;;;;;;5039990;28;20601;-86
2022/02/20 11:17:08;;;;;;;0.63;0.63;;;;;;;;;;5039505;28;20222;-85
2022/02/20 11:19:36;;;;;;;0.63;0.63;;;;;;;;;;5040149;28;20584;-87
2022/02/20 11:22:05;;;;;;;0.47;0.47;;;;;;;;;;5039035;28;20197;-86
2022/02/20 11:24:34;;;;;;;0.60;0.60;;;;;;;;;;5040218;28;20206;-86
2022/02/20 11:27:05;;;;;;;0.50;0.50;;;;;;;;;;5038768;28;20245;-85
2022/02/20 11:29:33;;;;;;;0.60;0.60;;;;;;;;;;5038884;28;20207;-87
2022/02/20 11:32:00;;;;;;;0.43;0.43;;;;;;;;;;5038155;28;20206;-86
2022/02/20 11:34:28;;;;;;;0.63;0.63;;;;;;;;;;5036115;28;20213;-86
2022/02/20 11:36:58;;;;;;;0.65;0.65;;;;;;;;;;5035752;28;20232;-82
2022/02/20 11:39:28;;;;;;;0.45;0.45;;;;;;;;;;5037670;28;20202;-84
2022/02/20 11:42:12;;;;;;;0.40;0.40;;;;;;;;;;5018134;28;20207;-84
2022/02/20 11:44:52;;;;;;;0.50;0.50;;;;;;;;;;5018021;28;20249;-84
2022/02/20 11:47:43;;;;;;;0.40;0.40;;;;;;;;;;5018334;28;20268;-84
2022/02/20 11:50:36;;;;;;;0.50;0.50;;;;;;;;;;5017260;28;20264;-84
2022/02/20 11:53:06;;;;;;;1.23;1.23;;;;;;;;;;5017842;28;20218;-85
2022/02/20 11:55:36;;;;;;;0.52;0.52;;;;;;;;;;5018414;28;20671;-84
2022/02/20 11:58:24;;;;;;;0.50;0.50;;;;;;;;;;5017141;28;20667;-85
2022/02/20 12:01:15;;;;;;;1.55;0.90;;;;;;;;;;5017014;28;20203;-84
2022/02/20 12:04:07;;;;;;;0.77;0.77;;;;;;;;;;5017231;28;20624;-84
2022/02/20 12:06:39;;;;;;;0.90;0.90;;;;;;;;;;5017106;28;20277;-85
2022/02/20 12:09:28;;;;;;;1.10;1.10;;;;;;;;;;5016281;28;20211;-85
2022/02/20 12:11:56;;;;;;;0.63;0.63;;;;;;;;;;5017882;28;20301;-85
2022/02/20 12:14:30;;;;;;;0.80;0.80;;;;;;;;;;5017101;28;20219;-84
2022/02/20 12:17:01;;;;;;;0.95;0.60;;;;;;;;;;5017721;28;20227;-84
2022/02/20 12:19:35;;;;;;;0.68;0.68;;;;;;;;;;5017424;28;20198;-84
2022/02/20 12:22:07;;;;;;;1.00;0.85;;;;;;;;;;5018332;28;20198;-84
2022/02/20 12:24:45;;;;;;;0.90;0.90;;;;;;;;;;5017373;28;20206;-84
2022/02/20 12:27:20;;;;;;;0.70;0.70;;;;;;;;;;5016154;28;20269;-83
2022/02/20 12:29:52;;;;;;;0.80;0.80;;;;;;;;;;5016829;28;20229;-82
2022/02/20 12:32:28;;;;;;;0.60;0.60;;;;;;;;;;5016458;28;20214;-83
2022/02/20 12:35:15;;;;;;;0.80;0.80;;;;;;;;;;5015810;28;20198;-83
2022/02/20 12:37:45;;;;;;;0.80;0.80;;;;;;;;;;5016006;28;20223;-83
2022/02/20 12:40:15;;;;;;;0.63;0.63;;;;;;;;;;5021200;28;20220;-83
2022/02/20 12:42:46;;;;;;;0.60;0.60;;;;;;;;;;5036106;28;20596;-83
2022/02/20 12:45:19;;;;;;;0.90;0.90;;;;;;;;;;5036158;28;20206;-83
2022/02/20 12:47:53;;;;;;;0.90;0.90;;;;;;;;;;5035723;28;20195;-83
2022/02/20 12:50:21;;;;;;;0.80;0.80;;;;;;;;;;5035864;28;20256;-84
2022/02/20 12:52:48;;;;;;;0.70;0.70;;;;;;;;;;5035044;28;20305;-83
2022/02/20 12:55:19;;;;;;;0.65;0.65;;;;;;;;;;5035289;28;20209;-83
2022/02/20 12:57:49;;;;;;;0.70;0.70;;;;;;;;;;5035710;28;20736;-83
2022/02/20 13:00:19;;;;;;;0.80;0.80;;;;;;;;;;5035343;28;20554;-83
2022/02/20 13:02:48;;;;;;;0.90;0.90;;;;;;;;;;5035793;28;20216;-84
2022/02/20 13:05:22;;;;;;;0.77;0.77;;;;;;;;;;5036006;28;20217;-84
2022/02/20 13:07:55;;;;;;;0.60;0.60;;;;;;;;;;5036230;28;20206;-84
2022/02/20 13:10:30;;;;;;;0.82;0.82;;;;;;;;;;5035568;28;20209;-84
2022/02/20 13:13:07;;;;;;;0.70;0.70;;;;;;;;;;5035951;28;20202;-84
2022/02/20 13:15:43;;;;;;;0.50;0.50;;;;;;;;;;5035846;28;20206;-84
2022/02/20 13:18:13;;;;;;;0.35;0.35;;;;;;;;;;5035346;28;20256;-83
2022/02/20 13:20:44;;;;;;;0.75;0.75;;;;;;;;;;5034969;28;20209;-83
2022/02/20 13:23:25;;;;;;;0.60;0.60;;;;;;;;;;5035016;28;20202;-84
2022/02/20 13:25:56;;;;;;;0.50;0.50;;;;;;;;;;5034944;28;20229;-84
2022/02/20 13:28:26;;;;;;;0.82;0.82;;;;;;;;;;5035100;28;20199;-83
2022/02/20 13:30:59;;;;;;;0.60;0.60;;;;;;;;;;5034700;28;20593;-85
2022/02/20 13:33:34;;;;;;;0.85;0.80;;;;;;;;;;5034188;28;20222;-83
2022/02/20 13:36:04;;;;;;;0.88;0.88;;;;;;;;;;5034923;28;20225;-84
2022/02/20 13:38:33;;;;;;;1.02;1.02;;;;;;;;;;5034298;28;20202;-84
2022/02/20 13:41:01;;;;;;;1.52;1.42;;;;;;;;;;5034236;28;20674;-84
2022/02/20 13:43:47;;;;;;;1.95;1.77;;;;;;;;;;5034412;28;20256;-84
2022/02/20 13:46:18;;;;;;;1.95;1.63;;;;;;;;;;5033242;28;20245;-84
2022/02/20 13:48:47;;;;;;;1.02;0.93;;;;;;;;;;5034301;28;20202;-84
2022/02/20 13:51:24;;;;;;;1.10;1.00;;;;;;;;;;5033882;28;20210;-84
2022/02/20 13:53:58;;;;;;;2.90;1.15;;;;;;;;;;5034253;28;20226;-84
2022/02/20 13:56:41;;;;;;;1.00;1.00;;;;;;;;;;5034067;28;20221;-84
2022/02/20 13:59:10;;;;;;;1.73;1.60;;;;;;;;;;5034023;28;20760;-84
2022/02/20 14:01:45;;;;;;;1.73;1.60;;;;;;;;;;5034168;28;20206;-83
2022/02/20 14:04:28;;;;;;;2.00;1.42;;;;;;;;;;5034371;28;20204;-83
2022/02/20 14:06:58;;;;;;;13.05;8.38;;;;;;;;;;5033466;28;20742;-84
2022/02/20 14:09:26;;;;;;;3.50;2.63;;;;;;;;;;5034514;28;20206;-84
2022/02/20 14:12:14;;;;;;;1.98;1.45;;;;;;;;;;5033343;28;20198;-84
2022/02/20 14:14:57;;;;;;;1.83;1.20;;;;;;;;;;5033915;28;20226;-84
2022/02/20 14:17:50;;;;;;;1.05;0.98;;;;;;;;;;5032939;28;20219;-84
2022/02/20 14:20:19;;;;;;;1.08;1.08;;;;;;;;;;5034695;28;20241;-84
2022/02/20 14:22:46;;;;;;;0.85;0.80;;;;;;;;;;5037182;28;20685;-84
2022/02/20 14:25:15;;;;;;;0.77;0.77;;;;;;;;;;5037256;28;20244;-83
2022/02/20 14:27:48;;;;;;;0.90;0.90;;;;;;;;;;5037276;28;20226;-86
2022/02/20 14:30:30;;;;;;;0.63;0.63;;;;;;;;;;5036453;28;20742;-84
2022/02/20 14:33:00;;;;;;;0.70;0.70;;;;;;;;;;5036189;28;20256;-84
2022/02/20 14:35:28;;;;;;;1.10;0.70;;;;;;;;;;5035812;28;20214;-83
2022/02/20 14:38:00;;;;;;;0.93;0.60;;;;;;;;;;5036081;28;20562;-83
2022/02/20 14:40:29;;;;;;;0.75;0.75;;;;;;;;;;5035854;28;20593;-83
2022/02/20 14:42:57;;;;;;;0.45;0.45;;;;;;;;;;5036046;28;20690;-83
2022/02/20 14:45:27;;;;;;;0.60;0.60;;;;;;;;;;5036068;28;20202;-83
2022/02/20 14:47:55;;;;;;;0.40;0.40;;;;;;;;;;5036128;28;20208;-84
2022/02/20 14:50:24;;;;;;;0.45;0.45;;;;;;;;;;5035649;28;20257;-83
2022/02/20 14:52:51;;;;;;;0.70;0.70;;;;;;;;;;5036266;28;20210;-84
2022/02/20 14:55:18;;;;;;;0.70;0.70;;;;;;;;;;5036071;28;20226;-83
2022/02/20 14:57:46;;;;;;;0.70;0.70;;;;;;;;;;5070973;22;20230;-86